sensor_id;sensor_type;location;lat;lon;timestamp;P1;durP1;ratioP1;P2;durP2;ratioP2
24261;SDS011;12385;51.412;5.540;2022-12-15T00:00:40;54.15;;;22.88;;
24261;SDS011;12385;51.412;5.540;2022-12-15T00:03:24;48.55;;;22.13;;
24261;SDS011;12385;51.412;5.540;2022-12-15T00:06:08;47.33;;;20.88;;
24261;SDS011;12385;51.412;5.540;2022-12-15T00:08:52;51.72;;;23.02;;
24261;SDS011;12385;51.412;5.540;2022-12-15T00:11:36;48.95;;;21.70;;
24261;SDS011;12385;51.412;5.540;2022-12-15T00:14:20;48.58;;;21.98;;
24261;SDS011;12385;51.412;5.540;2022-12-15T00:17:04;54.85;;;22.35;;
24261;SDS011;12385;51.412;5.540;2022-12-15T00:19:48;50.92;;;22.60;;
24261;SDS011;12385;51.412;5.540;2022-12-15T00:22:32;43.00;;;20.48;;
24261;SDS011;12385;51.412;5.540;2022-12-15T00:25:17;45.95;;;21.33;;
24261;SDS011;12385;51.412;5.540;2022-12-15T00:28:01;44.88;;;21.10;;
24261;SDS011;12385;51.412;5.540;2022-12-15T00:30:45;40.13;;;20.15;;
24261;SDS011;12385;51.412;5.540;2022-12-15T00:33:29;51.65;;;21.00;;
24261;SDS011;12385;51.412;5.540;2022-12-15T00:36:13;46.08;;;20.88;;
24261;SDS011;12385;51.412;5.540;2022-12-15T00:38:57;47.15;;;21.73;;
24261;SDS011;12385;51.412;5.540;2022-12-15T00:41:22;42.45;;;20.88;;
24261;SDS011;12385;51.412;5.540;2022-12-15T00:43:48;46.13;;;20.80;;
24261;SDS011;12385;51.412;5.540;2022-12-15T00:46:14;54.53;;;21.00;;
24261;SDS011;12385;51.412;5.540;2022-12-15T00:48:58;48.28;;;21.67;;
24261;SDS011;12385;51.412;5.540;2022-12-15T00:51:24;51.40;;;21.85;;
24261;SDS011;12385;51.412;5.540;2022-12-15T00:54:08;52.80;;;22.50;;
24261;SDS011;12385;51.412;5.540;2022-12-15T00:56:53;50.47;;;22.50;;
24261;SDS011;12385;51.412;5.540;2022-12-15T00:59:37;51.45;;;22.25;;
24261;SDS011;12385;51.412;5.540;2022-12-15T01:02:21;47.92;;;21.25;;
24261;SDS011;12385;51.412;5.540;2022-12-15T01:05:06;47.70;;;21.52;;
24261;SDS011;12385;51.412;5.540;2022-12-15T01:07:50;47.22;;;22.35;;
24261;SDS011;12385;51.412;5.540;2022-12-15T01:10:33;46.60;;;20.98;;
24261;SDS011;12385;51.412;5.540;2022-12-15T01:13:18;52.17;;;21.63;;
24261;SDS011;12385;51.412;5.540;2022-12-15T01:16:07;51.83;;;22.02;;
24261;SDS011;12385;51.412;5.540;2022-12-15T01:18:54;53.20;;;23.63;;
24261;SDS011;12385;51.412;5.540;2022-12-15T01:21:38;52.63;;;24.15;;
24261;SDS011;12385;51.412;5.540;2022-12-15T01:24:04;47.60;;;22.38;;
24261;SDS011;12385;51.412;5.540;2022-12-15T01:26:30;50.50;;;21.42;;
24261;SDS011;12385;51.412;5.540;2022-12-15T01:28:55;51.60;;;22.42;;
24261;SDS011;12385;51.412;5.540;2022-12-15T01:31:22;47.40;;;21.98;;
24261;SDS011;12385;51.412;5.540;2022-12-15T01:33:51;54.78;;;23.13;;
24261;SDS011;12385;51.412;5.540;2022-12-15T01:36:18;49.47;;;23.17;;
24261;SDS011;12385;51.412;5.540;2022-12-15T01:38:44;51.78;;;23.85;;
24261;SDS011;12385;51.412;5.540;2022-12-15T01:41:09;51.88;;;24.35;;
24261;SDS011;12385;51.412;5.540;2022-12-15T01:43:37;56.70;;;24.00;;
24261;SDS011;12385;51.412;5.540;2022-12-15T01:56:29;49.55;;;22.80;;
24261;SDS011;12385;51.412;5.540;2022-12-15T01:58:59;50.17;;;23.25;;
24261;SDS011;12385;51.412;5.540;2022-12-15T02:01:27;54.67;;;22.33;;
24261;SDS011;12385;51.412;5.540;2022-12-15T02:03:53;50.15;;;23.63;;
24261;SDS011;12385;51.412;5.540;2022-12-15T02:06:19;51.63;;;23.45;;
24261;SDS011;12385;51.412;5.540;2022-12-15T02:08:47;49.58;;;25.15;;
24261;SDS011;12385;51.412;5.540;2022-12-15T02:14:23;52.42;;;24.00;;
24261;SDS011;12385;51.412;5.540;2022-12-15T02:25:28;56.03;;;25.65;;
24261;SDS011;12385;51.412;5.540;2022-12-15T02:28:05;39.77;;;18.00;;
24261;SDS011;12385;51.412;5.540;2022-12-15T02:33:45;50.50;;;24.00;;
24261;SDS011;12385;51.412;5.540;2022-12-15T02:38:56;54.20;;;24.87;;
24261;SDS011;12385;51.412;5.540;2022-12-15T02:44:11;55.03;;;25.95;;
24261;SDS011;12385;51.412;5.540;2022-12-15T02:55:21;58.83;;;27.20;;
24261;SDS011;12385;51.412;5.540;2022-12-15T03:00:57;57.05;;;26.17;;
24261;SDS011;12385;51.412;5.540;2022-12-15T03:03:27;54.75;;;25.77;;
24261;SDS011;12385;51.412;5.540;2022-12-15T03:05:54;58.67;;;27.63;;
24261;SDS011;12385;51.412;5.540;2022-12-15T03:08:21;61.60;;;26.98;;
24261;SDS011;12385;51.412;5.540;2022-12-15T03:10:51;56.00;;;26.48;;
24261;SDS011;12385;51.412;5.540;2022-12-15T03:13:18;57.07;;;26.77;;
24261;SDS011;12385;51.412;5.540;2022-12-15T03:15:44;58.28;;;28.25;;
24261;SDS011;12385;51.412;5.540;2022-12-15T03:18:10;61.80;;;27.17;;
24261;SDS011;12385;51.412;5.540;2022-12-15T03:20:35;59.35;;;26.38;;
24261;SDS011;12385;51.412;5.540;2022-12-15T03:23:01;62.20;;;27.55;;
24261;SDS011;12385;51.412;5.540;2022-12-15T03:25:27;61.70;;;27.10;;
24261;SDS011;12385;51.412;5.540;2022-12-15T03:27:53;58.60;;;26.60;;
24261;SDS011;12385;51.412;5.540;2022-12-15T03:30:19;65.47;;;27.83;;
24261;SDS011;12385;51.412;5.540;2022-12-15T03:32:44;58.92;;;26.98;;
24261;SDS011;12385;51.412;5.540;2022-12-15T03:35:10;61.03;;;27.27;;
24261;SDS011;12385;51.412;5.540;2022-12-15T03:37:37;57.88;;;26.90;;
24261;SDS011;12385;51.412;5.540;2022-12-15T03:40:03;59.87;;;27.57;;
24261;SDS011;12385;51.412;5.540;2022-12-15T03:42:30;58.47;;;27.10;;
24261;SDS011;12385;51.412;5.540;2022-12-15T03:45:21;58.75;;;26.65;;
24261;SDS011;12385;51.412;5.540;2022-12-15T03:47:49;58.75;;;27.40;;
24261;SDS011;12385;51.412;5.540;2022-12-15T03:50:17;60.57;;;26.90;;
24261;SDS011;12385;51.412;5.540;2022-12-15T03:52:45;56.70;;;27.17;;
24261;SDS011;12385;51.412;5.540;2022-12-15T03:55:15;57.50;;;28.13;;
24261;SDS011;12385;51.412;5.540;2022-12-15T03:57:40;62.60;;;28.33;;
24261;SDS011;12385;51.412;5.540;2022-12-15T04:00:06;67.88;;;27.45;;
24261;SDS011;12385;51.412;5.540;2022-12-15T04:02:32;63.43;;;29.33;;
24261;SDS011;12385;51.412;5.540;2022-12-15T04:04:58;64.13;;;29.58;;
24261;SDS011;12385;51.412;5.540;2022-12-15T04:07:23;62.70;;;29.00;;
24261;SDS011;12385;51.412;5.540;2022-12-15T04:09:49;61.67;;;28.47;;
24261;SDS011;12385;51.412;5.540;2022-12-15T04:12:14;64.07;;;30.13;;
24261;SDS011;12385;51.412;5.540;2022-12-15T04:14:40;69.05;;;29.52;;
24261;SDS011;12385;51.412;5.540;2022-12-15T04:17:09;61.33;;;30.47;;
24261;SDS011;12385;51.412;5.540;2022-12-15T04:19:36;70.70;;;32.67;;
24261;SDS011;12385;51.412;5.540;2022-12-15T04:22:20;75.82;;;32.95;;
24261;SDS011;12385;51.412;5.540;2022-12-15T04:24:46;71.87;;;31.47;;
24261;SDS011;12385;51.412;5.540;2022-12-15T04:27:30;69.35;;;31.98;;
24261;SDS011;12385;51.412;5.540;2022-12-15T04:30:14;64.55;;;30.00;;
24261;SDS011;12385;51.412;5.540;2022-12-15T04:32:59;66.80;;;29.83;;
24261;SDS011;12385;51.412;5.540;2022-12-15T04:35:44;67.00;;;31.03;;
24261;SDS011;12385;51.412;5.540;2022-12-15T04:38:29;66.03;;;30.02;;
24261;SDS011;12385;51.412;5.540;2022-12-15T04:41:13;70.97;;;30.90;;
24261;SDS011;12385;51.412;5.540;2022-12-15T04:44:00;70.93;;;31.17;;
24261;SDS011;12385;51.412;5.540;2022-12-15T04:46:44;74.00;;;32.00;;
24261;SDS011;12385;51.412;5.540;2022-12-15T04:49:28;68.80;;;31.92;;
24261;SDS011;12385;51.412;5.540;2022-12-15T04:52:12;69.43;;;32.70;;
24261;SDS011;12385;51.412;5.540;2022-12-15T04:54:56;73.88;;;32.90;;
24261;SDS011;12385;51.412;5.540;2022-12-15T04:57:40;69.10;;;33.28;;
24261;SDS011;12385;51.412;5.540;2022-12-15T05:03:15;73.35;;;34.70;;
24261;SDS011;12385;51.412;5.540;2022-12-15T05:06:00;70.75;;;34.03;;
24261;SDS011;12385;51.412;5.540;2022-12-15T05:08:44;74.20;;;33.80;;
24261;SDS011;12385;51.412;5.540;2022-12-15T05:11:28;75.70;;;33.95;;
24261;SDS011;12385;51.412;5.540;2022-12-15T05:14:12;74.85;;;34.33;;
24261;SDS011;12385;51.412;5.540;2022-12-15T05:16:56;68.72;;;32.25;;
24261;SDS011;12385;51.412;5.540;2022-12-15T05:19:40;71.05;;;32.72;;
24261;SDS011;12385;51.412;5.540;2022-12-15T05:22:24;74.28;;;33.63;;
24261;SDS011;12385;51.412;5.540;2022-12-15T05:25:08;72.18;;;31.92;;
24261;SDS011;12385;51.412;5.540;2022-12-15T05:27:52;72.73;;;33.23;;
24261;SDS011;12385;51.412;5.540;2022-12-15T05:30:37;71.75;;;33.45;;
24261;SDS011;12385;51.412;5.540;2022-12-15T05:33:21;70.93;;;33.60;;
24261;SDS011;12385;51.412;5.540;2022-12-15T05:35:47;75.80;;;33.08;;
24261;SDS011;12385;51.412;5.540;2022-12-15T05:38:14;70.18;;;33.78;;
24261;SDS011;12385;51.412;5.540;2022-12-15T05:40:39;78.93;;;33.08;;
24261;SDS011;12385;51.412;5.540;2022-12-15T05:43:05;69.07;;;33.47;;
24261;SDS011;12385;51.412;5.540;2022-12-15T05:45:31;70.53;;;32.50;;
24261;SDS011;12385;51.412;5.540;2022-12-15T05:47:57;76.20;;;33.50;;
24261;SDS011;12385;51.412;5.540;2022-12-15T05:50:22;67.47;;;32.83;;
24261;SDS011;12385;51.412;5.540;2022-12-15T05:52:48;66.32;;;31.80;;
24261;SDS011;12385;51.412;5.540;2022-12-15T05:55:14;71.30;;;31.45;;
24261;SDS011;12385;51.412;5.540;2022-12-15T05:57:40;76.88;;;32.72;;
24261;SDS011;12385;51.412;5.540;2022-12-15T06:00:06;70.03;;;30.67;;
24261;SDS011;12385;51.412;5.540;2022-12-15T06:02:33;69.20;;;30.60;;
24261;SDS011;12385;51.412;5.540;2022-12-15T06:04:58;65.85;;;30.95;;
24261;SDS011;12385;51.412;5.540;2022-12-15T06:07:24;66.43;;;31.27;;
24261;SDS011;12385;51.412;5.540;2022-12-15T06:09:49;72.78;;;31.85;;
24261;SDS011;12385;51.412;5.540;2022-12-15T06:12:15;73.00;;;32.73;;
24261;SDS011;12385;51.412;5.540;2022-12-15T06:14:41;71.83;;;31.33;;
24261;SDS011;12385;51.412;5.540;2022-12-15T06:17:06;77.97;;;34.97;;
24261;SDS011;12385;51.412;5.540;2022-12-15T06:19:32;71.70;;;33.43;;
24261;SDS011;12385;51.412;5.540;2022-12-15T06:21:58;75.73;;;35.20;;
24261;SDS011;12385;51.412;5.540;2022-12-15T06:24:24;75.88;;;34.60;;
24261;SDS011;12385;51.412;5.540;2022-12-15T06:26:50;77.20;;;36.30;;
24261;SDS011;12385;51.412;5.540;2022-12-15T06:29:15;75.75;;;35.13;;
24261;SDS011;12385;51.412;5.540;2022-12-15T06:31:42;80.82;;;34.97;;
24261;SDS011;12385;51.412;5.540;2022-12-15T06:34:12;73.78;;;33.88;;
24261;SDS011;12385;51.412;5.540;2022-12-15T06:36:39;89.25;;;38.33;;
24261;SDS011;12385;51.412;5.540;2022-12-15T06:39:05;82.82;;;38.25;;
24261;SDS011;12385;51.412;5.540;2022-12-15T06:41:33;75.07;;;35.78;;
24261;SDS011;12385;51.412;5.540;2022-12-15T06:43:59;80.95;;;34.80;;
24261;SDS011;12385;51.412;5.540;2022-12-15T06:46:25;91.47;;;36.33;;
24261;SDS011;12385;51.412;5.540;2022-12-15T06:48:53;81.00;;;37.67;;
24261;SDS011;12385;51.412;5.540;2022-12-15T06:51:18;77.47;;;35.55;;
24261;SDS011;12385;51.412;5.540;2022-12-15T06:53:45;79.28;;;35.70;;
24261;SDS011;12385;51.412;5.540;2022-12-15T06:56:20;84.78;;;36.15;;
24261;SDS011;12385;51.412;5.540;2022-12-15T06:58:47;81.15;;;35.90;;
24261;SDS011;12385;51.412;5.540;2022-12-15T07:01:14;83.53;;;38.50;;
24261;SDS011;12385;51.412;5.540;2022-12-15T07:03:41;84.95;;;36.63;;
24261;SDS011;12385;51.412;5.540;2022-12-15T07:06:08;84.38;;;37.75;;
24261;SDS011;12385;51.412;5.540;2022-12-15T07:08:35;78.60;;;36.03;;
24261;SDS011;12385;51.412;5.540;2022-12-15T07:11:02;75.78;;;34.92;;
24261;SDS011;12385;51.412;5.540;2022-12-15T07:13:28;77.03;;;34.42;;
24261;SDS011;12385;51.412;5.540;2022-12-15T07:15:57;75.00;;;35.97;;
24261;SDS011;12385;51.412;5.540;2022-12-15T07:18:27;71.67;;;33.90;;
24261;SDS011;12385;51.412;5.540;2022-12-15T07:20:53;74.23;;;35.33;;
24261;SDS011;12385;51.412;5.540;2022-12-15T07:23:19;76.40;;;33.90;;
24261;SDS011;12385;51.412;5.540;2022-12-15T07:25:45;80.13;;;36.63;;
24261;SDS011;12385;51.412;5.540;2022-12-15T07:28:11;77.90;;;35.60;;
24261;SDS011;12385;51.412;5.540;2022-12-15T07:30:37;73.55;;;35.28;;
24261;SDS011;12385;51.412;5.540;2022-12-15T07:33:03;75.45;;;35.38;;
24261;SDS011;12385;51.412;5.540;2022-12-15T07:35:29;73.20;;;32.65;;
24261;SDS011;12385;51.412;5.540;2022-12-15T07:37:55;78.07;;;34.57;;
24261;SDS011;12385;51.412;5.540;2022-12-15T07:40:21;80.97;;;34.50;;
24261;SDS011;12385;51.412;5.540;2022-12-15T07:42:47;74.07;;;35.03;;
24261;SDS011;12385;51.412;5.540;2022-12-15T07:45:12;78.23;;;33.23;;
24261;SDS011;12385;51.412;5.540;2022-12-15T07:47:38;74.35;;;34.67;;
24261;SDS011;12385;51.412;5.540;2022-12-15T07:50:05;75.22;;;34.22;;
24261;SDS011;12385;51.412;5.540;2022-12-15T07:52:31;73.20;;;34.78;;
24261;SDS011;12385;51.412;5.540;2022-12-15T07:54:57;76.75;;;35.15;;
24261;SDS011;12385;51.412;5.540;2022-12-15T07:57:23;80.75;;;35.67;;
24261;SDS011;12385;51.412;5.540;2022-12-15T07:59:49;73.95;;;34.10;;
24261;SDS011;12385;51.412;5.540;2022-12-15T08:02:15;80.37;;;36.87;;
24261;SDS011;12385;51.412;5.540;2022-12-15T08:04:41;78.72;;;36.30;;
24261;SDS011;12385;51.412;5.540;2022-12-15T08:07:07;78.87;;;35.67;;
24261;SDS011;12385;51.412;5.540;2022-12-15T08:09:33;80.88;;;36.00;;
24261;SDS011;12385;51.412;5.540;2022-12-15T08:11:59;71.88;;;36.03;;
24261;SDS011;12385;51.412;5.540;2022-12-15T08:14:24;76.55;;;34.67;;
24261;SDS011;12385;51.412;5.540;2022-12-15T08:16:52;75.97;;;35.78;;
24261;SDS011;12385;51.412;5.540;2022-12-15T08:19:18;76.55;;;34.75;;
24261;SDS011;12385;51.412;5.540;2022-12-15T08:21:44;77.07;;;35.58;;
24261;SDS011;12385;51.412;5.540;2022-12-15T08:24:11;71.78;;;34.40;;
24261;SDS011;12385;51.412;5.540;2022-12-15T08:29:07;73.13;;;33.28;;
24261;SDS011;12385;51.412;5.540;2022-12-15T08:31:35;73.15;;;33.65;;
24261;SDS011;12385;51.412;5.540;2022-12-15T08:34:01;80.15;;;34.75;;
24261;SDS011;12385;51.412;5.540;2022-12-15T08:36:28;76.38;;;35.17;;
24261;SDS011;12385;51.412;5.540;2022-12-15T08:38:55;75.53;;;35.55;;
24261;SDS011;12385;51.412;5.540;2022-12-15T08:41:23;85.95;;;35.35;;
24261;SDS011;12385;51.412;5.540;2022-12-15T08:43:52;82.82;;;36.63;;
24261;SDS011;12385;51.412;5.540;2022-12-15T08:46:19;79.97;;;36.58;;
24261;SDS011;12385;51.412;5.540;2022-12-15T08:48:48;85.30;;;40.22;;
24261;SDS011;12385;51.412;5.540;2022-12-15T08:51:14;86.13;;;38.53;;
24261;SDS011;12385;51.412;5.540;2022-12-15T08:53:40;82.38;;;39.25;;
24261;SDS011;12385;51.412;5.540;2022-12-15T08:56:07;83.05;;;39.00;;
24261;SDS011;12385;51.412;5.540;2022-12-15T08:58:36;90.78;;;42.00;;
24261;SDS011;12385;51.412;5.540;2022-12-15T09:01:03;81.65;;;39.05;;
24261;SDS011;12385;51.412;5.540;2022-12-15T09:03:33;87.07;;;38.45;;
24261;SDS011;12385;51.412;5.540;2022-12-15T09:06:03;91.07;;;38.97;;
24261;SDS011;12385;51.412;5.540;2022-12-15T09:08:31;88.10;;;38.83;;
24261;SDS011;12385;51.412;5.540;2022-12-15T09:10:57;86.15;;;39.45;;
24261;SDS011;12385;51.412;5.540;2022-12-15T09:13:23;90.90;;;40.17;;
24261;SDS011;12385;51.412;5.540;2022-12-15T09:15:59;90.68;;;38.85;;
24261;SDS011;12385;51.412;5.540;2022-12-15T09:18:26;94.82;;;39.17;;
24261;SDS011;12385;51.412;5.540;2022-12-15T09:20:52;95.15;;;41.35;;
24261;SDS011;12385;51.412;5.540;2022-12-15T09:23:18;96.05;;;43.53;;
24261;SDS011;12385;51.412;5.540;2022-12-15T09:25:45;98.10;;;42.92;;
24261;SDS011;12385;51.412;5.540;2022-12-15T09:28:11;101.05;;;41.75;;
24261;SDS011;12385;51.412;5.540;2022-12-15T09:30:37;93.05;;;42.05;;
24261;SDS011;12385;51.412;5.540;2022-12-15T09:33:04;96.45;;;43.83;;
24261;SDS011;12385;51.412;5.540;2022-12-15T09:35:37;95.07;;;42.40;;
24261;SDS011;12385;51.412;5.540;2022-12-15T09:38:02;92.13;;;44.42;;
24261;SDS011;12385;51.412;5.540;2022-12-15T09:40:28;91.80;;;43.38;;
24261;SDS011;12385;51.412;5.540;2022-12-15T09:42:54;86.68;;;44.42;;
24261;SDS011;12385;51.412;5.540;2022-12-15T09:45:25;92.03;;;43.63;;
24261;SDS011;12385;51.412;5.540;2022-12-15T09:47:59;94.20;;;43.28;;
24261;SDS011;12385;51.412;5.540;2022-12-15T09:50:38;91.30;;;43.72;;
24261;SDS011;12385;51.412;5.540;2022-12-15T09:53:10;100.18;;;45.90;;
24261;SDS011;12385;51.412;5.540;2022-12-15T09:55:38;99.97;;;46.70;;
24261;SDS011;12385;51.412;5.540;2022-12-15T09:58:28;96.38;;;46.22;;
24261;SDS011;12385;51.412;5.540;2022-12-15T10:00:58;105.82;;;48.22;;
24261;SDS011;12385;51.412;5.540;2022-12-15T10:03:46;102.63;;;46.75;;
24261;SDS011;12385;51.412;5.540;2022-12-15T10:09:41;97.20;;;44.95;;
24261;SDS011;12385;51.412;5.540;2022-12-15T10:14:45;97.28;;;44.58;;
24261;SDS011;12385;51.412;5.540;2022-12-15T10:22:43;99.35;;;46.00;;
24261;SDS011;12385;51.412;5.540;2022-12-15T10:25:23;97.53;;;45.35;;
24261;SDS011;12385;51.412;5.540;2022-12-15T10:33:35;93.30;;;43.33;;
24261;SDS011;12385;51.412;5.540;2022-12-15T10:36:09;96.97;;;46.65;;
24261;SDS011;12385;51.412;5.540;2022-12-15T10:38:41;102.03;;;46.53;;
24261;SDS011;12385;51.412;5.540;2022-12-15T10:41:11;100.38;;;48.85;;
24261;SDS011;12385;51.412;5.540;2022-12-15T10:43:40;74.80;;;37.03;;
24261;SDS011;12385;51.412;5.540;2022-12-15T10:48:40;103.07;;;48.20;;
24261;SDS011;12385;51.412;5.540;2022-12-15T10:56:33;99.90;;;47.22;;
24261;SDS011;12385;51.412;5.540;2022-12-15T10:59:01;96.28;;;47.42;;
24261;SDS011;12385;51.412;5.540;2022-12-15T11:01:46;99.72;;;48.72;;
24261;SDS011;12385;51.412;5.540;2022-12-15T11:04:23;103.28;;;49.10;;
24261;SDS011;12385;51.412;5.540;2022-12-15T11:06:49;99.32;;;48.45;;
24261;SDS011;12385;51.412;5.540;2022-12-15T11:09:31;100.32;;;48.95;;
24261;SDS011;12385;51.412;5.540;2022-12-15T11:11:58;98.25;;;49.25;;
24261;SDS011;12385;51.412;5.540;2022-12-15T11:14:44;98.93;;;49.10;;
24261;SDS011;12385;51.412;5.540;2022-12-15T11:17:15;101.93;;;47.58;;
24261;SDS011;12385;51.412;5.540;2022-12-15T11:22:57;92.50;;;48.80;;
24261;SDS011;12385;51.412;5.540;2022-12-15T11:27:43;97.65;;;47.38;;
24261;SDS011;12385;51.412;5.540;2022-12-15T11:30:15;96.53;;;47.83;;
24261;SDS011;12385;51.412;5.540;2022-12-15T11:32:47;97.38;;;48.50;;
24261;SDS011;12385;51.412;5.540;2022-12-15T11:35:19;94.25;;;47.65;;
24261;SDS011;12385;51.412;5.540;2022-12-15T11:41:05;95.45;;;48.65;;
24261;SDS011;12385;51.412;5.540;2022-12-15T11:43:51;91.47;;;48.03;;
24261;SDS011;12385;51.412;5.540;2022-12-15T11:46:26;100.32;;;50.63;;
24261;SDS011;12385;51.412;5.540;2022-12-15T11:57:02;90.72;;;47.05;;
24261;SDS011;12385;51.412;5.540;2022-12-15T12:05:22;89.88;;;46.33;;
24261;SDS011;12385;51.412;5.540;2022-12-15T12:13:27;92.60;;;46.65;;
24261;SDS011;12385;51.412;5.540;2022-12-15T12:18:56;81.78;;;43.78;;
24261;SDS011;12385;51.412;5.540;2022-12-15T12:21:27;81.50;;;41.95;;
24261;SDS011;12385;51.412;5.540;2022-12-15T12:24:03;84.97;;;42.38;;
24261;SDS011;12385;51.412;5.540;2022-12-15T12:26:38;79.15;;;42.42;;
24261;SDS011;12385;51.412;5.540;2022-12-15T12:29:06;80.18;;;42.35;;
24261;SDS011;12385;51.412;5.540;2022-12-15T12:34:18;80.10;;;41.95;;
24261;SDS011;12385;51.412;5.540;2022-12-15T12:36:51;79.55;;;40.67;;
24261;SDS011;12385;51.412;5.540;2022-12-15T12:39:20;75.32;;;39.38;;
24261;SDS011;12385;51.412;5.540;2022-12-15T12:41:58;76.25;;;40.88;;
24261;SDS011;12385;51.412;5.540;2022-12-15T12:44:35;75.20;;;39.05;;
24261;SDS011;12385;51.412;5.540;2022-12-15T12:47:22;77.18;;;40.03;;
24261;SDS011;12385;51.412;5.540;2022-12-15T12:49:53;75.05;;;39.25;;
24261;SDS011;12385;51.412;5.540;2022-12-15T12:52:25;77.47;;;40.75;;
24261;SDS011;12385;51.412;5.540;2022-12-15T12:54:56;83.32;;;44.25;;
24261;SDS011;12385;51.412;5.540;2022-12-15T12:57:44;74.32;;;39.92;;
24261;SDS011;12385;51.412;5.540;2022-12-15T13:02:39;69.95;;;36.90;;
24261;SDS011;12385;51.412;5.540;2022-12-15T13:05:21;67.65;;;37.45;;
24261;SDS011;12385;51.412;5.540;2022-12-15T13:07:53;74.68;;;37.28;;
24261;SDS011;12385;51.412;5.540;2022-12-15T13:10:41;67.47;;;37.53;;
24261;SDS011;12385;51.412;5.540;2022-12-15T13:16:08;68.13;;;36.58;;
24261;SDS011;12385;51.412;5.540;2022-12-15T13:18:54;69.63;;;38.20;;
24261;SDS011;12385;51.412;5.540;2022-12-15T13:22:02;62.58;;;34.95;;
24261;SDS011;12385;51.412;5.540;2022-12-15T13:24:30;67.22;;;35.55;;
24261;SDS011;12385;51.412;5.540;2022-12-15T13:27:09;67.55;;;36.30;;
24261;SDS011;12385;51.412;5.540;2022-12-15T13:29:56;65.53;;;37.42;;
24261;SDS011;12385;51.412;5.540;2022-12-15T13:32:33;63.60;;;34.85;;
24261;SDS011;12385;51.412;5.540;2022-12-15T13:42:58;67.70;;;36.15;;
24261;SDS011;12385;51.412;5.540;2022-12-15T13:45:29;65.50;;;35.50;;
24261;SDS011;12385;51.412;5.540;2022-12-15T13:47:56;62.95;;;36.13;;
24261;SDS011;12385;51.412;5.540;2022-12-15T13:50:29;63.28;;;34.05;;
24261;SDS011;12385;51.412;5.540;2022-12-15T13:53:17;60.25;;;33.78;;
24261;SDS011;12385;51.412;5.540;2022-12-15T13:58:21;62.75;;;33.90;;
24261;SDS011;12385;51.412;5.540;2022-12-15T14:00:55;64.72;;;35.50;;
24261;SDS011;12385;51.412;5.540;2022-12-15T14:03:22;62.28;;;35.00;;
24261;SDS011;12385;51.412;5.540;2022-12-15T14:05:56;63.90;;;34.58;;
24261;SDS011;12385;51.412;5.540;2022-12-15T14:08:23;67.95;;;34.80;;
24261;SDS011;12385;51.412;5.540;2022-12-15T14:10:52;61.08;;;35.05;;
24261;SDS011;12385;51.412;5.540;2022-12-15T14:15:54;69.32;;;33.88;;
24261;SDS011;12385;51.412;5.540;2022-12-15T14:23:25;62.53;;;33.58;;
24261;SDS011;12385;51.412;5.540;2022-12-15T14:26:00;49.45;;;26.00;;
24261;SDS011;12385;51.412;5.540;2022-12-15T14:28:30;68.50;;;35.08;;
24261;SDS011;12385;51.412;5.540;2022-12-15T14:31:20;61.92;;;34.28;;
24261;SDS011;12385;51.412;5.540;2022-12-15T14:36:46;69.90;;;35.58;;
24261;SDS011;12385;51.412;5.540;2022-12-15T14:39:22;63.25;;;35.42;;
24261;SDS011;12385;51.412;5.540;2022-12-15T14:41:52;72.53;;;37.42;;
24261;SDS011;12385;51.412;5.540;2022-12-15T14:46:52;70.93;;;37.03;;
24261;SDS011;12385;51.412;5.540;2022-12-15T14:49:19;66.25;;;38.25;;
24261;SDS011;12385;51.412;5.540;2022-12-15T14:51:52;69.05;;;37.72;;
24261;SDS011;12385;51.412;5.540;2022-12-15T14:54:47;71.28;;;38.00;;
24261;SDS011;12385;51.412;5.540;2022-12-15T14:57:23;65.78;;;36.72;;
24261;SDS011;12385;51.412;5.540;2022-12-15T14:59:51;70.53;;;37.40;;
24261;SDS011;12385;51.412;5.540;2022-12-15T15:02:19;68.68;;;38.03;;
24261;SDS011;12385;51.412;5.540;2022-12-15T15:04:59;70.97;;;38.92;;
24261;SDS011;12385;51.412;5.540;2022-12-15T15:07:28;80.05;;;40.80;;
24261;SDS011;12385;51.412;5.540;2022-12-15T15:09:58;66.47;;;38.45;;
24261;SDS011;12385;51.412;5.540;2022-12-15T15:12:27;73.60;;;40.70;;
24261;SDS011;12385;51.412;5.540;2022-12-15T15:15:14;77.68;;;41.78;;
24261;SDS011;12385;51.412;5.540;2022-12-15T15:17:42;80.03;;;42.17;;
24261;SDS011;12385;51.412;5.540;2022-12-15T15:22:44;81.45;;;43.22;;
24261;SDS011;12385;51.412;5.540;2022-12-15T15:30:54;84.55;;;45.38;;
24261;SDS011;12385;51.412;5.540;2022-12-15T15:33:21;86.35;;;44.08;;
24261;SDS011;12385;51.412;5.540;2022-12-15T15:35:52;83.18;;;43.97;;
24261;SDS011;12385;51.412;5.540;2022-12-15T15:41:00;90.45;;;46.47;;
24261;SDS011;12385;51.412;5.540;2022-12-15T15:43:39;85.82;;;44.38;;
24261;SDS011;12385;51.412;5.540;2022-12-15T15:46:06;90.03;;;46.17;;
24261;SDS011;12385;51.412;5.540;2022-12-15T15:48:36;91.05;;;46.08;;
24261;SDS011;12385;51.412;5.540;2022-12-15T15:51:06;90.03;;;45.08;;
24261;SDS011;12385;51.412;5.540;2022-12-15T15:53:33;91.95;;;47.63;;
24261;SDS011;12385;51.412;5.540;2022-12-15T15:55:59;91.38;;;46.88;;
24261;SDS011;12385;51.412;5.540;2022-12-15T15:58:30;95.65;;;49.35;;
24261;SDS011;12385;51.412;5.540;2022-12-15T16:00:56;89.20;;;48.20;;
24261;SDS011;12385;51.412;5.540;2022-12-15T16:03:21;95.80;;;48.90;;
24261;SDS011;12385;51.412;5.540;2022-12-15T16:05:47;89.68;;;48.92;;
24261;SDS011;12385;51.412;5.540;2022-12-15T16:08:14;97.60;;;50.75;;
24261;SDS011;12385;51.412;5.540;2022-12-15T16:10:42;93.53;;;48.60;;
24261;SDS011;12385;51.412;5.540;2022-12-15T16:13:10;98.50;;;51.10;;
24261;SDS011;12385;51.412;5.540;2022-12-15T16:15:35;118.65;;;59.25;;
24261;SDS011;12385;51.412;5.540;2022-12-15T16:18:01;102.30;;;53.25;;
24261;SDS011;12385;51.412;5.540;2022-12-15T16:20:28;100.43;;;50.60;;
24261;SDS011;12385;51.412;5.540;2022-12-15T16:23:04;108.53;;;51.10;;
24261;SDS011;12385;51.412;5.540;2022-12-15T16:25:51;95.65;;;47.53;;
24261;SDS011;12385;51.412;5.540;2022-12-15T16:28:19;102.60;;;51.85;;
24261;SDS011;12385;51.412;5.540;2022-12-15T16:30:46;97.45;;;50.33;;
24261;SDS011;12385;51.412;5.540;2022-12-15T16:33:13;100.22;;;52.00;;
24261;SDS011;12385;51.412;5.540;2022-12-15T16:35:40;110.00;;;55.03;;
24261;SDS011;12385;51.412;5.540;2022-12-15T16:38:12;101.82;;;53.00;;
24261;SDS011;12385;51.412;5.540;2022-12-15T16:40:45;106.88;;;52.28;;
24261;SDS011;12385;51.412;5.540;2022-12-15T16:43:15;108.40;;;53.92;;
24261;SDS011;12385;51.412;5.540;2022-12-15T16:45:43;114.38;;;58.95;;
24261;SDS011;12385;51.412;5.540;2022-12-15T16:48:10;119.43;;;62.55;;
24261;SDS011;12385;51.412;5.540;2022-12-15T16:50:37;117.60;;;57.35;;
24261;SDS011;12385;51.412;5.540;2022-12-15T16:53:05;107.70;;;56.90;;
24261;SDS011;12385;51.412;5.540;2022-12-15T16:55:38;107.47;;;55.70;;
24261;SDS011;12385;51.412;5.540;2022-12-15T16:58:04;108.63;;;55.95;;
24261;SDS011;12385;51.412;5.540;2022-12-15T17:00:31;113.20;;;59.60;;
24261;SDS011;12385;51.412;5.540;2022-12-15T17:02:59;113.78;;;56.58;;
24261;SDS011;12385;51.412;5.540;2022-12-15T17:05:26;103.45;;;55.95;;
24261;SDS011;12385;51.412;5.540;2022-12-15T17:07:56;108.75;;;55.03;;
24261;SDS011;12385;51.412;5.540;2022-12-15T17:10:25;110.90;;;54.95;;
24261;SDS011;12385;51.412;5.540;2022-12-15T17:12:53;107.82;;;52.75;;